Time;durP1;ratioP1;P1;durP2;ratioP2;P2;SDS_P1;SDS_P2;PMS_P1;PMS_P2;Temp;Humidity;BMP_temperature;BMP_pressure;BME280_temperature;BME280_humidity;BME280_pressure;Samples;Min_cycle;Max_cycle;Signal;HPM_P1;HPM_P2
2022/10/31 00:01:40;;;;;;;10.27;4.50;;;17.20;71.80;;;;;;7413018;19;20327;-90
2022/10/31 00:04:12;;;;;;;7.07;3.40;;;17.20;71.60;;;;;;7396425;19;20015;-90
2022/10/31 00:06:40;;;;;;;8.88;3.80;;;17.20;71.60;;;;;;7400274;19;20028;-90
2022/10/31 00:09:09;;;;;;;20.15;4.60;;;17.20;71.70;;;;;;7400136;19;20024;-90
2022/10/31 00:11:38;;;;;;;8.27;4.05;;;17.20;71.60;;;;;;7395361;19;20014;-88
2022/10/31 00:14:07;;;;;;;10.00;3.30;;;17.10;71.20;;;;;;7392595;19;20564;-88
2022/10/31 00:16:36;;;;;;;8.43;3.50;;;17.10;71.20;;;;;;7423228;19;20021;-88
2022/10/31 00:19:08;;;;;;;12.55;4.55;;;17.10;71.10;;;;;;7405681;19;20015;-88
2022/10/31 00:21:39;;;;;;;10.13;4.80;;;17.00;71.10;;;;;;7406854;19;20014;-89
2022/10/31 00:24:08;;;;;;;8.98;4.85;;;17.00;71.00;;;;;;7378757;19;21226;-81
2022/10/31 00:26:37;;;;;;;7.78;4.30;;;17.00;71.20;;;;;;7408821;19;20006;-89
2022/10/31 00:29:06;;;;;;;11.02;4.20;;;17.00;71.40;;;;;;7413012;19;20009;-86
2022/10/31 00:31:35;;;;;;;8.25;3.40;;;17.00;71.40;;;;;;7433233;19;20014;-90
2022/10/31 00:34:04;;;;;;;10.10;3.50;;;16.90;71.50;;;;;;7415067;19;20014;-90
2022/10/31 00:36:33;;;;;;;10.38;4.05;;;16.90;71.60;;;;;;7374315;19;20022;-89
2022/10/31 00:39:04;;;;;;;9.95;3.78;;;16.90;71.60;;;;;;7395782;19;20006;-90
2022/10/31 00:41:33;;;;;;;11.77;3.63;;;16.90;71.10;;;;;;7412352;19;20009;-91
2022/10/31 00:44:02;;;;;;;6.97;3.50;;;16.90;70.80;;;;;;7413645;19;19999;-86
2022/10/31 00:46:30;;;;;;;7.90;3.88;;;16.90;70.60;;;;;;7436137;19;20027;-89
2022/10/31 00:48:59;;;;;;;8.45;4.07;;;17.00;70.60;;;;;;7413395;19;20007;-90
2022/10/31 00:51:28;;;;;;;13.15;4.50;;;16.90;70.50;;;;;;7411765;19;20100;-89
2022/10/31 00:53:57;;;;;;;10.88;4.00;;;17.00;70.50;;;;;;7413531;19;20021;-89
2022/10/31 00:56:28;;;;;;;10.05;3.60;;;17.00;70.70;;;;;;7411979;19;20023;-88
2022/10/31 00:58:57;;;;;;;8.32;3.75;;;17.00;70.80;;;;;;7413295;19;20010;-78
2022/10/31 01:01:25;;;;;;;8.68;3.78;;;17.00;70.80;;;;;;7434288;19;20015;-88
2022/10/31 01:03:54;;;;;;;14.02;4.40;;;17.00;70.70;;;;;;7410011;19;20017;-89
2022/10/31 01:06:23;;;;;;;12.15;4.65;;;17.00;70.60;;;;;;7410650;19;20010;-89
2022/10/31 01:08:51;;;;;;;14.38;4.80;;;17.00;70.70;;;;;;7410115;19;20006;-88
2022/10/31 01:11:22;;;;;;;12.27;4.28;;;16.90;70.80;;;;;;7411595;19;20006;-88
2022/10/31 01:13:54;;;;;;;13.05;4.38;;;17.00;71.80;;;;;;7428750;19;20015;-89
2022/10/31 01:16:26;;;;;;;10.68;3.97;;;16.90;71.00;;;;;;7412017;19;20010;-89
2022/10/31 01:18:54;;;;;;;;;;;17.00;71.00;;;;;;7408702;19;20022;-89
2022/10/31 01:21:25;;;;;;;9.68;3.90;;;17.00;71.20;;;;;;7408659;19;19926;-88
2022/10/31 01:23:56;;;;;;;10.77;3.78;;;17.00;71.10;;;;;;7402665;19;20014;-89
2022/10/31 01:26:27;;;;;;;8.45;4.43;;;17.00;71.10;;;;;;7401226;19;20014;-88
2022/10/31 01:29:00;;;;;;;11.95;4.13;;;17.10;71.10;;;;;;7407074;19;20007;-83
2022/10/31 01:31:31;;;;;;;10.75;3.85;;;17.00;71.10;;;;;;7424609;19;20014;-89
2022/10/31 01:34:00;;;;;;;;;;;17.10;71.10;;;;;;7403042;19;20021;-89
2022/10/31 01:36:31;;;;;;;10.07;3.80;;;17.20;71.30;;;;;;7400198;19;19950;-89
2022/10/31 01:39:03;;;;;;;7.85;3.67;;;17.10;71.10;;;;;;7401094;19;20014;-89
2022/10/31 01:41:34;;;;;;;11.38;3.95;;;17.10;71.30;;;;;;7403132;19;20031;-89
2022/10/31 01:44:41;;;;;;;10.02;3.90;;;17.10;71.30;;;;;;7407962;19;20022;-88
2022/10/31 01:47:15;;;;;;;4.93;3.63;;;17.10;71.40;;;;;;7406254;19;20040;-89
2022/10/31 01:49:48;;;;;;;7.25;3.88;;;17.10;71.30;;;;;;7430752;19;20027;-89
2022/10/31 01:52:21;;;;;;;12.88;3.90;;;17.10;71.40;;;;;;7412706;19;20006;-89
2022/10/31 01:54:56;;;;;;;8.73;3.58;;;17.10;71.60;;;;;;7410854;19;20017;-90
2022/10/31 01:57:25;;;;;;;11.30;4.00;;;17.10;72.50;;;;;;7409513;19;20015;-90
2022/10/31 02:00:00;;;;;;;7.13;3.67;;;17.20;72.60;;;;;;7409423;19;20006;-89
2022/10/31 02:02:30;;;;;;;15.85;3.95;;;17.10;71.60;;;;;;7411246;19;20076;-88
2022/10/31 02:04:59;;;;;;;9.75;4.05;;;17.20;71.60;;;;;;7411915;19;20006;-79
2022/10/31 02:07:32;;;;;;;9.07;3.65;;;17.20;71.50;;;;;;7423641;19;20019;-88
2022/10/31 02:10:03;;;;;;;6.32;3.50;;;17.20;71.50;;;;;;7388133;19;20026;-88
2022/10/31 02:12:32;;;;;;;6.85;3.40;;;17.30;71.60;;;;;;7391634;19;20022;-88
2022/10/31 02:15:04;;;;;;;9.40;3.53;;;17.20;71.40;;;;;;7390323;19;20025;-87
2022/10/31 02:17:35;;;;;;;7.03;3.75;;;17.20;71.30;;;;;;7392378;19;20010;-89
2022/10/31 02:20:14;;;;;;;6.25;4.20;;;17.10;71.50;;;;;;7394091;19;20102;-88
2022/10/31 02:22:59;;;;;;;9.45;4.10;;;17.00;71.70;;;;;;7417831;19;20035;-89
2022/10/31 02:25:50;;;;;;;10.98;4.70;;;17.00;72.10;;;;;;7402294;19;20014;-89
2022/10/31 02:28:34;;;;;;;9.20;4.03;;;17.00;72.30;;;;;;7396973;19;20022;-89
2022/10/31 02:31:21;;;;;;;7.72;3.85;;;16.90;72.50;;;;;;7397214;19;20027;-89
2022/10/31 02:33:55;;;;;;;9.23;4.05;;;17.00;72.80;;;;;;7399430;19;20311;-89
2022/10/31 02:36:29;;;;;;;12.77;4.00;;;17.00;72.70;;;;;;7396884;19;20078;-89
2022/10/31 02:39:09;;;;;;;9.02;4.10;;;17.00;72.80;;;;;;7391959;19;20455;-89
2022/10/31 02:41:46;;;;;;;10.23;4.18;;;17.00;72.50;;;;;;7402700;19;20022;-89
2022/10/31 02:44:23;;;;;;;11.35;4.20;;;17.00;72.30;;;;;;7404929;19;20015;-89
2022/10/31 02:46:59;;;;;;;10.20;3.85;;;17.00;72.40;;;;;;7422825;19;20014;-89
2022/10/31 02:49:35;;;;;;;8.75;3.60;;;17.00;72.60;;;;;;7397549;19;20018;-89
2022/10/31 02:52:04;;;;;;;6.90;3.63;;;17.00;72.70;;;;;;7394254;19;20030;-90
2022/10/31 02:54:34;;;;;;;7.80;3.42;;;17.00;72.70;;;;;;7399897;19;20007;-90
2022/10/31 02:57:07;;;;;;;12.38;3.65;;;17.10;72.80;;;;;;7396139;19;20026;-90
2022/10/31 02:59:38;;;;;;;12.73;3.95;;;17.10;72.60;;;;;;7387212;19;20018;-86
2022/10/31 03:02:32;;;;;;;8.02;4.13;;;17.00;72.50;;;;;;7379311;19;20432;-86
2022/10/31 03:05:21;;;;;;;10.88;4.05;;;17.00;72.60;;;;;;7384350;19;20400;-85
2022/10/31 03:07:58;;;;;;;5.95;3.70;;;17.00;72.90;;;;;;7404078;19;20051;-87
2022/10/31 03:10:36;;;;;;;8.43;4.00;;;17.00;73.00;;;;;;7382097;19;20062;-88
2022/10/31 03:13:11;;;;;;;10.18;4.00;;;17.00;73.00;;;;;;7378946;19;20062;-88
2022/10/31 03:15:43;;;;;;;7.47;3.80;;;17.00;73.00;;;;;;7379838;19;20090;-88
2022/10/31 03:18:19;;;;;;;10.18;3.55;;;17.10;73.00;;;;;;7374636;19;20515;-87
2022/10/31 03:20:51;;;;;;;9.68;3.90;;;17.10;72.80;;;;;;7376122;19;20394;-87
2022/10/31 03:23:24;;;;;;;11.57;4.03;;;17.20;72.70;;;;;;7379072;19;20068;-87
2022/10/31 03:25:55;;;;;;;11.35;4.10;;;17.20;72.60;;;;;;7417794;19;20035;-89
2022/10/31 03:28:30;;;;;;;6.15;4.10;;;17.10;72.50;;;;;;7400011;19;20018;-89
2022/10/31 03:31:00;;;;;;;9.65;4.40;;;17.10;72.70;;;;;;7390162;19;20024;-89
2022/10/31 03:33:35;;;;;;;9.57;3.88;;;17.10;72.90;;;;;;7404932;19;20025;-88
2022/10/31 03:36:07;;;;;;;9.75;4.05;;;17.00;72.90;;;;;;7391681;19;20018;-89
2022/10/31 03:38:38;;;;;;;7.93;3.88;;;17.10;73.00;;;;;;7380869;19;20131;-89
2022/10/31 03:41:09;;;;;;;8.93;3.97;;;17.10;73.10;;;;;;7382749;19;20086;-89
2022/10/31 03:43:45;;;;;;;8.95;3.90;;;17.10;73.20;;;;;;7410013;19;20271;-89
2022/10/31 03:46:13;;;;;;;7.13;3.85;;;17.10;73.30;;;;;;7394664;19;20067;-88
2022/10/31 03:48:45;;;;;;;8.27;4.07;;;17.10;73.40;;;;;;7390156;19;20718;-89
2022/10/31 03:51:18;;;;;;;6.75;3.53;;;17.10;73.50;;;;;;7387847;19;20580;-89
2022/10/31 03:53:51;;;;;;;8.63;3.58;;;17.10;73.60;;;;;;7391087;19;20485;-88
2022/10/31 03:56:25;;;;;;;11.40;4.07;;;17.20;73.60;;;;;;7400408;19;20031;-88
2022/10/31 03:59:01;;;;;;;9.05;4.00;;;17.20;73.60;;;;;;7419605;19;20031;-88
2022/10/31 04:01:33;;;;;;;6.78;3.22;;;17.20;73.60;;;;;;7394590;19;20058;-88
2022/10/31 04:04:06;;;;;;;8.75;3.20;;;17.20;73.60;;;;;;7397653;19;20628;-87
2022/10/31 04:06:37;;;;;;;8.48;3.40;;;17.20;73.70;;;;;;7389719;19;20341;-87
2022/10/31 04:09:09;;;;;;;11.68;4.35;;;17.30;73.70;;;;;;7404866;19;20007;-89
2022/10/31 04:11:44;;;;;;;18.33;8.25;;;17.20;73.50;;;;;;7404078;19;20014;-89
2022/10/31 04:14:14;;;;;;;44.53;17.23;;;17.20;73.30;;;;;;7404182;19;20031;-88
2022/10/31 04:16:45;;;;;;;128.52;47.00;;;17.20;73.20;;;;;;7421290;19;20019;-89
2022/10/31 04:19:17;;;;;;;245.27;81.80;;;17.20;73.20;;;;;;7405839;19;20056;-88
2022/10/31 04:21:46;;;;;;;159.10;55.75;;;17.20;73.20;;;;;;7400971;19;20406;-89
2022/10/31 04:24:15;;;;;;;91.57;33.80;;;17.20;73.10;;;;;;7400037;19;20084;-87
2022/10/31 04:26:43;;;;;;;50.22;19.92;;;17.20;73.20;;;;;;7396789;19;20074;-87
2022/10/31 04:29:12;;;;;;;35.90;14.88;;;17.20;73.20;;;;;;7398508;19;20018;-87
2022/10/31 04:31:41;;;;;;;20.23;8.40;;;17.20;73.20;;;;;;7413159;19;20482;-87
2022/10/31 04:34:09;;;;;;;18.92;5.40;;;17.20;73.20;;;;;;7396683;19;20045;-89
2022/10/31 04:36:41;;;;;;;11.95;4.68;;;17.20;73.00;;;;;;7408789;19;20009;-90
2022/10/31 04:39:09;;;;;;;8.68;4.30;;;17.20;73.20;;;;;;7407233;19;20027;-90
2022/10/31 04:41:39;;;;;;;13.23;4.40;;;17.20;73.30;;;;;;7395537;19;20101;-88
2022/10/31 04:44:08;;;;;;;10.38;3.67;;;17.20;73.30;;;;;;7392749;19;20010;-88
2022/10/31 04:46:36;;;;;;;10.63;3.78;;;17.10;73.30;;;;;;7412010;19;20089;-89
2022/10/31 04:49:05;;;;;;;7.03;3.60;;;17.10;73.60;;;;;;7389176;19;20479;-89
2022/10/31 04:51:34;;;;;;;7.93;3.92;;;17.10;73.80;;;;;;7391762;19;20022;-89
2022/10/31 04:54:05;;;;;;;13.02;3.83;;;17.20;73.90;;;;;;7388036;19;20094;-89
2022/10/31 04:56:33;;;;;;;;;;;17.10;73.90;;;;;;7391508;19;20018;-88
2022/10/31 04:59:02;;;;;;;10.60;3.42;;;17.30;74.00;;;;;;7389314;19;20331;-88
2022/10/31 05:01:31;;;;;;;7.10;3.50;;;17.20;73.70;;;;;;7424016;19;20022;-87
2022/10/31 05:03:59;;;;;;;7.55;3.50;;;17.20;73.80;;;;;;7403943;19;20014;-88
2022/10/31 05:06:28;;;;;;;9.27;3.90;;;17.20;74.00;;;;;;7395427;19;20015;-88
2022/10/31 05:08:57;;;;;;;13.70;4.72;;;17.20;74.10;;;;;;7394120;19;20022;-89
2022/10/31 05:11:28;;;;;;;28.08;10.80;;;17.20;74.10;;;;;;7392762;19;20035;-88
2022/10/31 05:13:57;;;;;;;35.28;14.48;;;17.20;74.00;;;;;;7392101;19;20043;-86
2022/10/31 05:16:25;;;;;;;31.63;13.75;;;17.20;73.90;;;;;;7408363;19;20018;-89
2022/10/31 05:18:54;;;;;;;23.77;12.25;;;17.20;73.80;;;;;;7390129;19;20023;-89
2022/10/31 05:21:23;;;;;;;21.52;11.60;;;17.30;73.80;;;;;;7392568;19;20039;-91
2022/10/31 05:23:52;;;;;;;24.67;10.43;;;17.20;73.70;;;;;;7356408;19;20018;-90
2022/10/31 05:26:20;;;;;;;23.67;10.57;;;17.20;73.80;;;;;;7406054;19;20014;-88
2022/10/31 05:28:51;;;;;;;27.00;10.50;;;17.20;73.80;;;;;;7424098;19;20024;-90
2022/10/31 05:31:20;;;;;;;23.27;9.52;;;17.20;73.90;;;;;;7410785;19;20025;-90
2022/10/31 05:33:49;;;;;;;24.38;9.25;;;17.20;73.90;;;;;;7398502;19;20011;-89
2022/10/31 05:36:18;;;;;;;19.73;7.93;;;17.20;73.90;;;;;;7392065;19;20481;-89
2022/10/31 05:38:46;;;;;;;18.73;7.95;;;17.20;74.10;;;;;;7382993;19;20028;-88
2022/10/31 05:41:15;;;;;;;11.55;6.43;;;17.20;74.30;;;;;;7387596;19;20024;-89
2022/10/31 05:43:44;;;;;;;14.00;6.70;;;17.20;74.30;;;;;;7412495;19;20494;-88
2022/10/31 05:46:15;;;;;;;27.65;10.18;;;17.20;74.20;;;;;;7383048;19;20353;-88
2022/10/31 05:48:43;;;;;;;34.70;14.80;;;17.20;74.10;;;;;;7384237;19;20018;-88
2022/10/31 05:51:12;;;;;;;31.95;13.10;;;17.20;74.10;;;;;;7389801;19;20105;-89
2022/10/31 05:53:41;;;;;;;20.80;9.75;;;17.20;74.80;;;;;;7388582;19;20825;-90
2022/10/31 05:56:10;;;;;;;16.63;7.22;;;17.20;74.10;;;;;;7387756;19;20098;-89
2022/10/31 05:58:38;;;;;;;14.02;7.10;;;17.20;74.10;;;;;;7399018;19;20026;-88
2022/10/31 06:01:08;;;;;;;19.38;6.78;;;17.10;74.10;;;;;;7375793;19;20066;-88
2022/10/31 06:03:39;;;;;;;16.90;8.23;;;17.20;74.30;;;;;;7386445;19;20547;-90
2022/10/31 06:06:08;;;;;;;13.27;7.25;;;17.20;74.40;;;;;;7397162;19;20011;-90
2022/10/31 06:08:37;;;;;;;16.58;6.97;;;17.20;74.40;;;;;;7393736;19;20015;-89
2022/10/31 06:11:06;;;;;;;21.40;6.45;;;17.20;74.40;;;;;;7390947;19;20011;-89
2022/10/31 06:13:34;;;;;;;15.05;6.90;;;17.20;74.40;;;;;;7417620;19;20010;-89
2022/10/31 06:16:03;;;;;;;15.40;6.53;;;17.20;74.40;;;;;;7405167;19;20502;-90
2022/10/31 06:18:32;;;;;;;13.63;6.35;;;17.20;74.50;;;;;;7403928;19;20039;-91
2022/10/31 06:21:03;;;;;;;11.68;5.47;;;17.20;74.40;;;;;;7404893;19;20014;-90
2022/10/31 06:23:31;;;;;;;15.77;5.55;;;17.20;74.40;;;;;;7401109;19;20027;-89
2022/10/31 06:26:00;;;;;;;10.70;4.95;;;17.20;74.40;;;;;;7405145;19;20019;-84
2022/10/31 06:28:29;;;;;;;15.73;5.50;;;17.20;74.40;;;;;;7423902;19;20013;-86
2022/10/31 06:30:58;;;;;;;13.52;5.53;;;17.20;74.40;;;;;;7411925;19;20011;-89
2022/10/31 06:33:26;;;;;;;12.40;4.85;;;17.20;74.50;;;;;;7407977;19;20020;-90
2022/10/31 06:35:55;;;;;;;10.55;5.03;;;17.20;74.50;;;;;;7404338;19;20022;-89
2022/10/31 06:38:28;;;;;;;15.15;5.43;;;17.20;74.40;;;;;;7404396;19;20011;-90
2022/10/31 06:40:57;;;;;;;19.08;5.20;;;17.10;74.50;;;;;;7395637;19;20036;-87
2022/10/31 06:43:26;;;;;;;11.48;5.22;;;17.10;74.80;;;;;;7411480;19;20018;-88
2022/10/31 06:45:55;;;;;;;16.02;5.43;;;17.10;75.00;;;;;;7389034;19;20029;-89
2022/10/31 06:48:23;;;;;;;15.07;4.95;;;17.10;75.10;;;;;;7382348;19;20046;-87
2022/10/31 06:50:52;;;;;;;12.05;5.18;;;17.10;75.20;;;;;;7383106;19;20109;-88
2022/10/31 06:53:21;;;;;;;17.27;5.22;;;17.10;75.20;;;;;;7386627;19;20037;-89
2022/10/31 06:55:52;;;;;;;17.67;5.60;;;17.10;75.10;;;;;;7418233;19;20014;-89
2022/10/31 06:58:20;;;;;;;12.93;5.43;;;17.10;75.20;;;;;;7390772;19;20022;-88
2022/10/31 07:00:49;;;;;;;13.40;5.45;;;17.10;75.10;;;;;;7386181;19;20082;-89
2022/10/31 07:03:20;;;;;;;12.63;5.65;;;17.10;75.00;;;;;;7382906;19;20406;-89
2022/10/31 07:05:49;;;;;;;12.02;5.30;;;17.10;75.00;;;;;;7385055;19;20006;-89
2022/10/31 07:08:17;;;;;;;10.07;5.30;;;17.10;75.00;;;;;;7397400;19;20043;-90
2022/10/31 07:10:56;;;;;;;11.80;5.47;;;17.10;75.10;;;;;;7421880;19;20580;-90
2022/10/31 07:13:26;;;;;;;12.45;6.10;;;17.10;75.30;;;;;;7402876;19;20027;-90
2022/10/31 07:15:56;;;;;;;19.73;5.40;;;17.10;75.20;;;;;;7401738;19;20366;-90
2022/10/31 07:18:24;;;;;;;15.80;5.75;;;17.10;75.20;;;;;;7398441;19;20011;-90
2022/10/31 07:20:54;;;;;;;14.27;5.75;;;17.20;75.20;;;;;;7399958;19;20483;-90
2022/10/31 07:23:24;;;;;;;14.77;5.32;;;17.10;75.10;;;;;;7398054;19;20014;-90
2022/10/31 07:26:00;;;;;;;10.25;5.05;;;17.20;76.10;;;;;;7421057;19;20026;-90
2022/10/31 07:28:30;;;;;;;18.75;5.35;;;17.10;75.10;;;;;;7402151;19;20023;-83
2022/10/31 07:30:59;;;;;;;16.60;5.80;;;17.20;75.20;;;;;;7377105;19;20455;-85
2022/10/31 07:33:28;;;;;;;12.27;5.75;;;17.20;75.30;;;;;;7379413;19;20031;-85
2022/10/31 07:35:57;;;;;;;15.35;5.97;;;17.20;75.40;;;;;;7378130;19;20011;-80
2022/10/31 07:38:26;;;;;;;10.27;5.07;;;17.20;75.50;;;;;;7380149;19;20092;-88
2022/10/31 07:40:55;;;;;;;12.60;5.50;;;17.30;75.60;;;;;;7404531;19;21146;-79
2022/10/31 07:43:27;;;;;;;14.88;5.82;;;17.30;75.50;;;;;;7400770;19;20018;-88
2022/10/31 07:45:57;;;;;;;12.10;5.50;;;17.30;75.50;;;;;;7376883;19;20078;-88
2022/10/31 07:48:26;;;;;;;17.38;6.40;;;17.30;75.50;;;;;;7378464;19;20031;-87
2022/10/31 07:50:54;;;;;;;13.90;6.15;;;17.30;75.30;;;;;;7390969;19;20018;-90
2022/10/31 07:53:23;;;;;;;20.23;6.95;;;17.30;75.30;;;;;;7387707;19;20011;-89
2022/10/31 07:55:52;;;;;;;27.58;7.32;;;17.30;75.40;;;;;;7418380;19;20023;-89
2022/10/31 07:58:21;;;;;;;23.95;7.03;;;17.40;75.50;;;;;;7407499;19;20006;-89
2022/10/31 08:00:52;;;;;;;13.88;6.32;;;17.40;75.60;;;;;;7411400;19;20013;-88
2022/10/31 08:03:22;;;;;;;18.30;7.38;;;17.40;75.70;;;;;;7406861;19;20014;-89
2022/10/31 08:05:50;;;;;;;32.08;8.52;;;17.50;75.80;;;;;;7399742;19;20031;-89
2022/10/31 08:08:19;;;;;;;24.67;8.63;;;17.50;75.80;;;;;;7398960;19;20022;-90
2022/10/31 08:10:48;;;;;;;26.33;8.23;;;17.50;76.10;;;;;;7413263;19;20081;-89
2022/10/31 08:13:17;;;;;;;23.45;8.57;;;17.50;76.20;;;;;;7391158;19;20039;-90
2022/10/31 08:15:49;;;;;;;28.77;8.48;;;17.60;76.30;;;;;;7401948;19;20094;-91
2022/10/31 08:18:23;;;;;;;20.95;8.45;;;17.60;76.60;;;;;;7411576;19;20059;-90
2022/10/31 08:20:52;;;;;;;20.90;8.43;;;17.60;76.60;;;;;;7411028;19;20046;-90
2022/10/31 08:23:21;;;;;;;22.83;8.45;;;17.70;76.80;;;;;;7407662;19;20003;-91
2022/10/31 08:25:49;;;;;;;29.77;7.88;;;17.70;76.80;;;;;;7423443;19;20002;-91
2022/10/31 08:28:18;;;;;;;21.60;8.43;;;17.70;76.90;;;;;;7408368;19;20024;-91
2022/10/31 08:30:47;;;;;;;29.63;9.88;;;17.80;77.00;;;;;;7407408;19;20009;-91
2022/10/31 08:33:17;;;;;;;22.67;8.52;;;17.80;77.50;;;;;;7406417;19;20006;-91
2022/10/31 08:35:49;;;;;;;28.52;8.65;;;17.80;77.80;;;;;;7409564;19;20014;-90
2022/10/31 08:38:18;;;;;;;23.08;9.68;;;17.80;78.00;;;;;;7412322;19;20007;-91
2022/10/31 08:40:51;;;;;;;28.13;9.00;;;17.80;78.10;;;;;;7434148;19;20011;-91
2022/10/31 08:43:20;;;;;;;24.00;10.82;;;17.80;78.30;;;;;;7406467;19;20021;-91
2022/10/31 08:51:02;;;;;;;30.02;13.15;;;18.00;78.30;;;;;;7379157;19;20022;-90
2022/10/31 08:53:31;;;;;;;32.60;14.05;;;18.10;78.30;;;;;;7359975;19;20109;-87
2022/10/31 08:56:00;;;;;;;35.13;14.45;;;18.10;78.10;;;;;;7385802;19;20050;-85
2022/10/31 08:58:28;;;;;;;36.67;14.07;;;18.20;78.10;;;;;;7402948;19;20083;-89
2022/10/31 09:00:58;;;;;;;39.90;14.65;;;18.20;78.20;;;;;;7377526;19;20018;-87
2022/10/31 09:03:30;;;;;;;38.53;14.95;;;18.30;78.10;;;;;;7377637;19;20007;-86
2022/10/31 09:06:02;;;;;;;;;;;18.30;78.00;;;;;;7387630;19;20026;-86
2022/10/31 09:08:33;;;;;;;41.92;14.30;;;18.40;77.80;;;;;;7374283;19;19919;-81
2022/10/31 09:11:02;;;;;;;31.95;14.98;;;18.30;77.30;;;;;;7376640;19;20022;-83
2022/10/31 09:13:31;;;;;;;33.20;14.00;;;18.40;77.30;;;;;;7400081;19;20616;-85
2022/10/31 09:16:00;;;;;;;39.83;14.27;;;18.30;77.30;;;;;;7375316;19;20078;-85
2022/10/31 09:18:31;;;;;;;40.83;14.68;;;18.30;77.40;;;;;;7375493;19;20019;-85
2022/10/31 09:21:03;;;;;;;34.90;13.63;;;18.40;77.40;;;;;;7376479;19;20038;-86
2022/10/31 09:23:32;;;;;;;30.58;14.10;;;18.40;77.30;;;;;;7378957;19;20358;-85
2022/10/31 09:26:03;;;;;;;37.42;14.55;;;18.40;77.30;;;;;;7385450;19;20051;-82
2022/10/31 09:28:32;;;;;;;34.63;13.90;;;18.40;77.30;;;;;;7414761;19;20022;-84
2022/10/31 09:31:00;;;;;;;28.60;13.32;;;18.50;77.20;;;;;;7383468;19;20089;-84
2022/10/31 09:33:29;;;;;;;32.47;14.13;;;18.60;77.30;;;;;;7375985;19;20123;-84
2022/10/31 09:35:57;;;;;;;36.63;14.68;;;18.50;77.00;;;;;;7374322;19;20014;-84
2022/10/31 09:38:29;;;;;;;37.10;14.63;;;18.60;77.00;;;;;;7374149;19;20021;-87
2022/10/31 09:41:04;;;;;;;29.88;13.68;;;18.60;77.10;;;;;;7379146;19;20026;-87
2022/10/31 09:43:43;;;;;;;33.65;14.13;;;18.60;76.90;;;;;;7404429;19;20026;-88
2022/10/31 09:46:18;;;;;;;33.88;14.23;;;18.60;76.70;;;;;;7392587;19;20026;-90
2022/10/31 09:48:58;;;;;;;36.65;14.18;;;18.70;76.90;;;;;;7375837;19;20019;-86
2022/10/31 09:51:32;;;;;;;35.50;14.00;;;18.70;76.90;;;;;;7374539;19;20022;-87
2022/10/31 09:54:11;;;;;;;29.42;12.60;;;18.70;76.80;;;;;;7373791;19;20035;-87
2022/10/31 09:56:41;;;;;;;31.50;13.75;;;18.70;76.70;;;;;;7372056;19;20022;-87
2022/10/31 09:59:18;;;;;;;41.60;13.80;;;18.80;76.70;;;;;;7373190;19;20026;-87
2022/10/31 10:01:51;;;;;;;39.60;13.10;;;18.80;76.70;;;;;;7396445;19;20003;-86
2022/10/31 10:04:40;;;;;;;35.25;12.18;;;18.90;76.40;;;;;;7371401;19;20021;-87
2022/10/31 10:07:19;;;;;;;30.08;12.05;;;18.80;76.50;;;;;;7372330;19;20014;-87
2022/10/31 10:09:51;;;;;;;33.25;12.15;;;18.90;76.50;;;;;;7376727;19;20413;-87
2022/10/31 10:12:27;;;;;;;33.30;11.48;;;19.00;76.70;;;;;;7380615;19;20014;-87
2022/10/31 10:15:11;;;;;;;31.73;10.82;;;19.00;76.10;;;;;;7377119;19;20026;-87
2022/10/31 10:17:51;;;;;;;28.55;11.85;;;19.10;76.10;;;;;;7379960;19;20086;-87
2022/10/31 10:20:28;;;;;;;28.90;10.57;;;19.20;75.70;;;;;;7372977;19;20024;-88
2022/10/31 10:23:15;;;;;;;32.60;11.02;;;19.20;75.50;;;;;;7373800;19;20352;-88
2022/10/31 10:25:52;;;;;;;24.83;9.93;;;19.30;75.50;;;;;;7404753;19;20014;-87
2022/10/31 10:28:25;;;;;;;20.73;9.65;;;19.40;75.40;;;;;;7387619;19;21050;-92
2022/10/31 10:31:00;;;;;;;26.65;9.38;;;19.40;75.20;;;;;;7377053;19;20010;-90
2022/10/31 10:33:35;;;;;;;31.20;10.45;;;19.50;75.10;;;;;;7381333;19;20011;-91
2022/10/31 10:36:09;;;;;;;26.85;9.40;;;19.60;75.10;;;;;;7385732;19;20022;-90
2022/10/31 10:38:42;;;;;;;38.10;10.00;;;19.70;74.80;;;;;;7382215;19;20035;-89
2022/10/31 10:41:19;;;;;;;31.83;9.38;;;19.70;74.20;;;;;;7384972;19;20010;-90
2022/10/31 10:43:48;;;;;;;24.45;9.63;;;19.80;73.90;;;;;;7404511;19;20255;-91
2022/10/31 10:49:13;;;;;;;24.40;9.95;;;19.90;73.50;;;;;;7388276;19;20011;-90
2022/10/31 10:51:58;;;;;;;28.88;9.80;;;19.90;73.30;;;;;;7380032;19;20010;-90
2022/10/31 10:54:45;;;;;;;30.85;9.52;;;19.90;73.20;;;;;;7390902;19;20429;-89
2022/10/31 10:57:29;;;;;;;35.00;11.20;;;19.70;73.30;;;;;;7399163;19;20014;-89
2022/10/31 10:59:58;;;;;;;24.00;9.82;;;19.70;73.30;;;;;;7385196;19;20019;-87
2022/10/31 11:02:29;;;;;;;29.83;10.02;;;19.80;73.30;;;;;;7382761;19;20018;-84
2022/10/31 11:05:00;;;;;;;35.50;10.40;;;19.80;73.40;;;;;;7356040;19;20022;-80
2022/10/31 11:07:47;;;;;;;30.52;10.60;;;19.70;73.50;;;;;;7389442;19;20082;-85
2022/10/31 11:10:18;;;;;;;32.70;9.95;;;19.70;73.80;;;;;;7377218;19;20291;-84
2022/10/31 11:13:08;;;;;;;32.07;9.33;;;19.70;73.90;;;;;;7374207;19;20014;-84
2022/10/31 11:15:42;;;;;;;18.00;8.50;;;19.70;73.90;;;;;;7368823;19;20271;-87
2022/10/31 11:18:23;;;;;;;20.73;8.70;;;19.70;73.80;;;;;;7366065;19;20028;-83
2022/10/31 11:20:55;;;;;;;26.20;8.38;;;19.70;73.70;;;;;;7371462;19;20015;-83
2022/10/31 11:23:25;;;;;;;18.38;7.70;;;19.80;73.40;;;;;;7370268;19;20035;-83
2022/10/31 11:25:58;;;;;;;21.50;7.85;;;19.80;73.00;;;;;;7392365;19;20022;-83
2022/10/31 11:28:32;;;;;;;21.05;8.10;;;19.80;73.00;;;;;;7373773;19;20015;-82
2022/10/31 11:31:02;;;;;;;22.85;8.50;;;19.80;72.60;;;;;;7372177;19;20022;-83
2022/10/31 11:33:35;;;;;;;29.45;8.02;;;19.80;72.50;;;;;;7370439;19;20109;-83
2022/10/31 11:36:06;;;;;;;25.48;7.32;;;19.90;72.60;;;;;;7371306;19;20109;-84
2022/10/31 11:38:42;;;;;;;20.40;8.27;;;19.90;72.50;;;;;;7368389;19;20073;-84
2022/10/31 11:41:17;;;;;;;18.48;6.93;;;19.90;72.50;;;;;;7370290;19;20032;-84
2022/10/31 11:43:54;;;;;;;23.58;8.90;;;20.00;72.30;;;;;;7392400;19;20019;-84
2022/10/31 11:46:26;;;;;;;25.00;7.82;;;20.00;72.00;;;;;;7369736;19;20030;-84
2022/10/31 11:48:57;;;;;;;30.67;7.90;;;20.10;71.80;;;;;;7370175;19;20024;-84
2022/10/31 11:51:28;;;;;;;17.83;7.15;;;20.10;71.50;;;;;;7368498;19;20112;-83
2022/10/31 11:54:02;;;;;;;25.45;7.97;;;20.10;71.60;;;;;;7366496;19;20424;-83
2022/10/31 11:56:39;;;;;;;26.17;7.60;;;20.20;71.40;;;;;;7367575;19;20074;-84
2022/10/31 11:59:20;;;;;;;21.40;7.50;;;20.30;71.10;;;;;;7368956;19;20623;-85
2022/10/31 12:01:51;;;;;;;19.55;7.20;;;20.30;71.10;;;;;;7388080;19;20014;-84
2022/10/31 12:04:20;;;;;;;18.08;7.13;;;20.40;71.10;;;;;;7367093;19;20452;-84
2022/10/31 12:06:50;;;;;;;17.38;6.80;;;20.40;70.90;;;;;;7369665;19;20055;-84
2022/10/31 12:09:24;;;;;;;20.95;7.18;;;20.40;70.60;;;;;;7369179;19;20006;-84
2022/10/31 12:12:20;;;;;;;18.98;6.68;;;20.50;70.60;;;;;;7372294;19;20018;-84
2022/10/31 12:15:03;;;;;;;19.38;6.95;;;20.50;70.50;;;;;;7376733;19;20039;-84
2022/10/31 12:17:38;;;;;;;26.05;6.82;;;20.60;70.30;;;;;;7374578;19;20035;-83
2022/10/31 12:20:22;;;;;;;15.95;6.35;;;20.60;69.70;;;;;;7376585;19;20017;-83
2022/10/31 12:23:01;;;;;;;17.75;6.95;;;20.70;69.70;;;;;;7399706;19;20018;-83
2022/10/31 12:25:38;;;;;;;20.75;7.88;;;20.70;69.60;;;;;;7387810;19;20018;-88
2022/10/31 12:28:30;;;;;;;18.08;7.13;;;20.80;69.60;;;;;;7390353;19;20019;-86
2022/10/31 12:31:13;;;;;;;17.00;7.20;;;20.80;69.60;;;;;;7381465;19;20085;-85
2022/10/31 12:33:53;;;;;;;18.85;6.93;;;20.90;69.50;;;;;;7376098;19;20115;-83
2022/10/31 12:36:32;;;;;;;21.42;7.18;;;21.00;68.80;;;;;;7373217;19;20018;-84
2022/10/31 12:39:24;;;;;;;16.42;6.75;;;21.00;69.40;;;;;;7376903;19;20056;-84
2022/10/31 12:41:58;;;;;;;17.27;7.47;;;21.10;69.40;;;;;;7379672;19;20006;-85
2022/10/31 12:45:05;;;;;;;27.80;7.68;;;21.10;68.70;;;;;;7374633;19;20018;-85
2022/10/31 12:47:58;;;;;;;18.60;7.25;;;21.20;68.90;;;;;;7378849;19;20412;-84
2022/10/31 12:50:35;;;;;;;19.92;7.25;;;21.30;68.70;;;;;;7378499;19;20023;-85
2022/10/31 12:53:19;;;;;;;23.05;7.38;;;21.30;68.60;;;;;;7378431;19;20338;-80
2022/10/31 12:55:58;;;;;;;19.08;7.35;;;21.20;68.60;;;;;;7395725;19;20010;-80
2022/10/31 12:58:30;;;;;;;19.70;7.30;;;21.20;68.70;;;;;;7374738;19;20358;-80
2022/10/31 13:01:10;;;;;;;24.67;7.88;;;21.20;68.80;;;;;;7372556;19;20722;-80
2022/10/31 13:03:48;;;;;;;20.40;7.93;;;21.20;69.00;;;;;;7372498;19;20082;-80
2022/10/31 13:06:21;;;;;;;24.95;8.00;;;21.20;69.20;;;;;;7373524;19;20053;-79
2022/10/31 13:08:54;;;;;;;26.60;7.47;;;21.30;69.40;;;;;;7373008;19;20398;-80
2022/10/31 13:11:27;;;;;;;27.42;7.05;;;21.40;69.10;;;;;;7376292;19;20014;-79
2022/10/31 13:14:05;;;;;;;21.05;7.20;;;21.40;68.90;;;;;;7386085;19;20332;-78